sensor_id;sensor_type;location;lat;lon;timestamp;P1;durP1;ratioP1;P2;durP2;ratioP2
32639;SDS011;19049;52.524;11.468;2023-04-19T00:00:29;2.13;;;1.60;;
32639;SDS011;19049;52.524;11.468;2023-04-19T00:02:55;2.03;;;1.70;;
32639;SDS011;19049;52.524;11.468;2023-04-19T00:05:21;3.50;;;1.80;;
32639;SDS011;19049;52.524;11.468;2023-04-19T00:07:48;1.80;;;1.60;;
32639;SDS011;19049;52.524;11.468;2023-04-19T00:10:14;3.03;;;1.90;;
32639;SDS011;19049;52.524;11.468;2023-04-19T00:12:40;2.23;;;1.60;;
32639;SDS011;19049;52.524;11.468;2023-04-19T00:15:06;3.27;;;2.00;;
32639;SDS011;19049;52.524;11.468;2023-04-19T00:17:32;2.30;;;1.80;;
32639;SDS011;19049;52.524;11.468;2023-04-19T00:19:59;3.73;;;1.90;;
32639;SDS011;19049;52.524;11.468;2023-04-19T00:22:25;2.73;;;1.47;;
32639;SDS011;19049;52.524;11.468;2023-04-19T00:24:51;2.77;;;1.60;;
32639;SDS011;19049;52.524;11.468;2023-04-19T00:27:17;4.40;;;1.60;;
32639;SDS011;19049;52.524;11.468;2023-04-19T00:29:43;3.97;;;1.60;;
32639;SDS011;19049;52.524;11.468;2023-04-19T00:32:08;1.97;;;1.70;;
32639;SDS011;19049;52.524;11.468;2023-04-19T00:34:35;3.80;;;1.67;;
32639;SDS011;19049;52.524;11.468;2023-04-19T00:37:01;2.00;;;1.63;;
32639;SDS011;19049;52.524;11.468;2023-04-19T00:39:29;2.63;;;1.87;;
32639;SDS011;19049;52.524;11.468;2023-04-19T00:41:55;3.23;;;1.80;;
32639;SDS011;19049;52.524;11.468;2023-04-19T00:44:21;2.67;;;1.73;;
32639;SDS011;19049;52.524;11.468;2023-04-19T00:46:47;3.50;;;2.00;;
32639;SDS011;19049;52.524;11.468;2023-04-19T00:49:13;3.13;;;1.90;;
32639;SDS011;19049;52.524;11.468;2023-04-19T00:51:40;3.70;;;2.03;;
32639;SDS011;19049;52.524;11.468;2023-04-19T00:54:06;2.00;;;1.37;;
32639;SDS011;19049;52.524;11.468;2023-04-19T00:56:32;2.60;;;1.50;;
32639;SDS011;19049;52.524;11.468;2023-04-19T00:58:59;3.33;;;1.60;;
32639;SDS011;19049;52.524;11.468;2023-04-19T01:01:25;3.83;;;2.30;;
32639;SDS011;19049;52.524;11.468;2023-04-19T01:03:51;2.50;;;1.67;;
32639;SDS011;19049;52.524;11.468;2023-04-19T01:06:16;3.07;;;1.90;;
32639;SDS011;19049;52.524;11.468;2023-04-19T01:08:42;3.00;;;1.97;;
32639;SDS011;19049;52.524;11.468;2023-04-19T01:11:08;3.33;;;1.87;;
32639;SDS011;19049;52.524;11.468;2023-04-19T01:13:34;3.97;;;1.87;;
32639;SDS011;19049;52.524;11.468;2023-04-19T01:15:59;2.23;;;1.60;;
32639;SDS011;19049;52.524;11.468;2023-04-19T01:18:25;2.97;;;2.00;;
32639;SDS011;19049;52.524;11.468;2023-04-19T01:20:56;2.47;;;1.97;;
32639;SDS011;19049;52.524;11.468;2023-04-19T01:23:22;2.10;;;1.90;;
32639;SDS011;19049;52.524;11.468;2023-04-19T01:25:48;2.17;;;1.60;;
32639;SDS011;19049;52.524;11.468;2023-04-19T01:28:14;3.60;;;2.10;;
32639;SDS011;19049;52.524;11.468;2023-04-19T01:30:40;2.90;;;2.00;;
32639;SDS011;19049;52.524;11.468;2023-04-19T01:33:07;2.07;;;1.60;;
32639;SDS011;19049;52.524;11.468;2023-04-19T01:35:32;2.23;;;1.87;;
32639;SDS011;19049;52.524;11.468;2023-04-19T01:37:58;3.77;;;1.90;;
32639;SDS011;19049;52.524;11.468;2023-04-19T01:40:25;3.57;;;2.13;;
32639;SDS011;19049;52.524;11.468;2023-04-19T01:42:51;3.03;;;2.13;;
32639;SDS011;19049;52.524;11.468;2023-04-19T01:45:17;2.47;;;1.90;;
32639;SDS011;19049;52.524;11.468;2023-04-19T01:47:42;2.37;;;1.90;;
32639;SDS011;19049;52.524;11.468;2023-04-19T01:50:08;2.57;;;1.60;;
32639;SDS011;19049;52.524;11.468;2023-04-19T01:52:34;1.80;;;1.57;;
32639;SDS011;19049;52.524;11.468;2023-04-19T01:55:00;2.63;;;2.10;;
32639;SDS011;19049;52.524;11.468;2023-04-19T01:57:25;3.43;;;1.83;;
32639;SDS011;19049;52.524;11.468;2023-04-19T01:59:54;2.17;;;1.77;;
32639;SDS011;19049;52.524;11.468;2023-04-19T02:02:21;3.70;;;1.80;;
32639;SDS011;19049;52.524;11.468;2023-04-19T02:04:46;2.10;;;1.50;;
32639;SDS011;19049;52.524;11.468;2023-04-19T02:07:12;2.37;;;1.77;;
32639;SDS011;19049;52.524;11.468;2023-04-19T02:09:38;2.87;;;1.60;;
32639;SDS011;19049;52.524;11.468;2023-04-19T02:12:04;3.87;;;1.70;;
32639;SDS011;19049;52.524;11.468;2023-04-19T02:14:30;2.37;;;1.73;;
32639;SDS011;19049;52.524;11.468;2023-04-19T02:16:56;2.63;;;1.47;;
32639;SDS011;19049;52.524;11.468;2023-04-19T02:19:22;2.23;;;1.47;;
32639;SDS011;19049;52.524;11.468;2023-04-19T02:21:48;2.40;;;1.20;;
32639;SDS011;19049;52.524;11.468;2023-04-19T02:24:14;2.90;;;1.80;;
32639;SDS011;19049;52.524;11.468;2023-04-19T02:26:39;2.50;;;1.33;;
32639;SDS011;19049;52.524;11.468;2023-04-19T02:29:05;1.73;;;1.40;;
32639;SDS011;19049;52.524;11.468;2023-04-19T02:31:31;2.93;;;1.60;;
32639;SDS011;19049;52.524;11.468;2023-04-19T02:33:57;5.83;;;2.10;;
32639;SDS011;19049;52.524;11.468;2023-04-19T02:36:23;2.40;;;1.73;;
32639;SDS011;19049;52.524;11.468;2023-04-19T02:38:48;1.63;;;1.20;;
32639;SDS011;19049;52.524;11.468;2023-04-19T02:41:14;1.77;;;1.33;;
32639;SDS011;19049;52.524;11.468;2023-04-19T02:43:40;2.87;;;1.80;;
32639;SDS011;19049;52.524;11.468;2023-04-19T02:46:06;2.10;;;1.40;;
32639;SDS011;19049;52.524;11.468;2023-04-19T02:48:31;2.07;;;1.33;;
32639;SDS011;19049;52.524;11.468;2023-04-19T02:50:57;2.30;;;1.53;;
32639;SDS011;19049;52.524;11.468;2023-04-19T02:53:23;3.13;;;1.50;;
32639;SDS011;19049;52.524;11.468;2023-04-19T02:55:49;1.93;;;1.23;;
32639;SDS011;19049;52.524;11.468;2023-04-19T02:58:15;3.73;;;1.50;;
32639;SDS011;19049;52.524;11.468;2023-04-19T03:00:40;2.13;;;1.43;;
32639;SDS011;19049;52.524;11.468;2023-04-19T03:03:06;1.47;;;1.33;;
32639;SDS011;19049;52.524;11.468;2023-04-19T03:05:33;2.60;;;1.67;;
32639;SDS011;19049;52.524;11.468;2023-04-19T03:07:59;2.00;;;1.53;;
32639;SDS011;19049;52.524;11.468;2023-04-19T03:10:24;3.40;;;1.50;;
32639;SDS011;19049;52.524;11.468;2023-04-19T03:12:50;3.00;;;1.53;;
32639;SDS011;19049;52.524;11.468;2023-04-19T03:15:16;2.13;;;1.50;;
32639;SDS011;19049;52.524;11.468;2023-04-19T03:17:42;2.77;;;1.40;;
32639;SDS011;19049;52.524;11.468;2023-04-19T03:20:08;3.53;;;1.43;;
32639;SDS011;19049;52.524;11.468;2023-04-19T03:22:35;2.57;;;1.50;;
32639;SDS011;19049;52.524;11.468;2023-04-19T03:25:03;2.17;;;1.60;;
32639;SDS011;19049;52.524;11.468;2023-04-19T03:27:29;2.67;;;1.83;;
32639;SDS011;19049;52.524;11.468;2023-04-19T03:29:55;2.53;;;1.63;;
32639;SDS011;19049;52.524;11.468;2023-04-19T03:32:21;2.33;;;1.43;;
32639;SDS011;19049;52.524;11.468;2023-04-19T03:34:46;2.77;;;1.67;;
32639;SDS011;19049;52.524;11.468;2023-04-19T03:37:12;2.10;;;1.30;;
32639;SDS011;19049;52.524;11.468;2023-04-19T03:39:38;1.97;;;1.37;;
32639;SDS011;19049;52.524;11.468;2023-04-19T03:42:04;2.63;;;1.80;;
32639;SDS011;19049;52.524;11.468;2023-04-19T03:44:30;3.03;;;1.53;;
32639;SDS011;19049;52.524;11.468;2023-04-19T03:46:57;3.57;;;1.77;;
32639;SDS011;19049;52.524;11.468;2023-04-19T03:49:23;2.93;;;1.43;;
32639;SDS011;19049;52.524;11.468;2023-04-19T03:51:49;1.80;;;1.27;;
32639;SDS011;19049;52.524;11.468;2023-04-19T03:54:15;4.33;;;1.67;;
32639;SDS011;19049;52.524;11.468;2023-04-19T03:56:41;2.00;;;1.50;;
32639;SDS011;19049;52.524;11.468;2023-04-19T03:59:10;2.57;;;1.43;;
32639;SDS011;19049;52.524;11.468;2023-04-19T04:01:36;2.83;;;1.67;;
32639;SDS011;19049;52.524;11.468;2023-04-19T04:04:06;2.07;;;1.27;;
32639;SDS011;19049;52.524;11.468;2023-04-19T04:06:33;1.67;;;1.17;;
32639;SDS011;19049;52.524;11.468;2023-04-19T04:08:59;2.53;;;1.40;;
32639;SDS011;19049;52.524;11.468;2023-04-19T04:11:25;2.17;;;1.10;;
32639;SDS011;19049;52.524;11.468;2023-04-19T04:13:50;1.80;;;1.17;;
32639;SDS011;19049;52.524;11.468;2023-04-19T04:16:16;2.73;;;1.43;;
32639;SDS011;19049;52.524;11.468;2023-04-19T04:18:41;3.07;;;1.60;;
32639;SDS011;19049;52.524;11.468;2023-04-19T04:21:07;4.30;;;1.80;;
32639;SDS011;19049;52.524;11.468;2023-04-19T04:23:33;4.10;;;1.83;;
32639;SDS011;19049;52.524;11.468;2023-04-19T04:25:59;2.10;;;1.73;;
32639;SDS011;19049;52.524;11.468;2023-04-19T04:28:28;1.77;;;1.47;;
32639;SDS011;19049;52.524;11.468;2023-04-19T04:30:55;3.27;;;1.70;;
32639;SDS011;19049;52.524;11.468;2023-04-19T04:33:25;1.50;;;1.40;;
32639;SDS011;19049;52.524;11.468;2023-04-19T04:35:52;4.57;;;1.80;;
32639;SDS011;19049;52.524;11.468;2023-04-19T04:38:19;3.07;;;1.57;;
32639;SDS011;19049;52.524;11.468;2023-04-19T04:40:51;4.40;;;1.77;;
32639;SDS011;19049;52.524;11.468;2023-04-19T04:43:18;2.50;;;1.57;;
32639;SDS011;19049;52.524;11.468;2023-04-19T04:45:48;3.13;;;1.90;;
32639;SDS011;19049;52.524;11.468;2023-04-19T04:48:14;2.73;;;1.60;;
32639;SDS011;19049;52.524;11.468;2023-04-19T04:50:40;1.87;;;1.37;;
32639;SDS011;19049;52.524;11.468;2023-04-19T04:53:06;4.17;;;2.03;;
32639;SDS011;19049;52.524;11.468;2023-04-19T04:55:32;6.13;;;1.87;;
32639;SDS011;19049;52.524;11.468;2023-04-19T04:57:58;2.87;;;1.87;;
32639;SDS011;19049;52.524;11.468;2023-04-19T05:00:33;3.13;;;1.53;;
32639;SDS011;19049;52.524;11.468;2023-04-19T05:02:59;2.23;;;1.60;;
32639;SDS011;19049;52.524;11.468;2023-04-19T05:05:25;1.77;;;1.40;;
32639;SDS011;19049;52.524;11.468;2023-04-19T05:07:51;3.80;;;1.73;;
32639;SDS011;19049;52.524;11.468;2023-04-19T05:10:17;2.30;;;1.53;;
32639;SDS011;19049;52.524;11.468;2023-04-19T05:12:43;3.17;;;1.87;;
32639;SDS011;19049;52.524;11.468;2023-04-19T05:15:08;2.80;;;1.43;;
32639;SDS011;19049;52.524;11.468;2023-04-19T05:17:35;2.63;;;1.50;;
32639;SDS011;19049;52.524;11.468;2023-04-19T05:20:01;2.77;;;2.00;;
32639;SDS011;19049;52.524;11.468;2023-04-19T05:22:27;2.50;;;1.80;;
32639;SDS011;19049;52.524;11.468;2023-04-19T05:24:53;3.10;;;1.70;;
32639;SDS011;19049;52.524;11.468;2023-04-19T05:27:19;2.57;;;1.70;;
32639;SDS011;19049;52.524;11.468;2023-04-19T05:29:44;3.07;;;2.10;;
32639;SDS011;19049;52.524;11.468;2023-04-19T05:32:10;2.63;;;1.60;;
32639;SDS011;19049;52.524;11.468;2023-04-19T05:34:36;5.43;;;1.80;;
32639;SDS011;19049;52.524;11.468;2023-04-19T05:37:02;2.60;;;1.80;;
32639;SDS011;19049;52.524;11.468;2023-04-19T05:39:28;3.30;;;2.20;;
32639;SDS011;19049;52.524;11.468;2023-04-19T05:41:54;2.37;;;1.93;;
32639;SDS011;19049;52.524;11.468;2023-04-19T05:44:19;3.50;;;2.13;;
32639;SDS011;19049;52.524;11.468;2023-04-19T05:46:45;1.90;;;1.40;;
32639;SDS011;19049;52.524;11.468;2023-04-19T05:49:10;2.97;;;1.90;;
32639;SDS011;19049;52.524;11.468;2023-04-19T05:51:36;3.73;;;2.20;;
32639;SDS011;19049;52.524;11.468;2023-04-19T05:54:02;3.27;;;1.90;;
32639;SDS011;19049;52.524;11.468;2023-04-19T05:56:28;4.10;;;2.17;;
32639;SDS011;19049;52.524;11.468;2023-04-19T05:58:56;2.17;;;1.63;;
32639;SDS011;19049;52.524;11.468;2023-04-19T06:01:22;3.03;;;1.80;;
32639;SDS011;19049;52.524;11.468;2023-04-19T06:03:48;2.23;;;1.70;;
32639;SDS011;19049;52.524;11.468;2023-04-19T06:06:17;5.60;;;2.00;;
32639;SDS011;19049;52.524;11.468;2023-04-19T06:08:43;2.23;;;2.00;;
32639;SDS011;19049;52.524;11.468;2023-04-19T06:11:09;3.30;;;1.83;;
32639;SDS011;19049;52.524;11.468;2023-04-19T06:13:35;2.40;;;1.80;;
32639;SDS011;19049;52.524;11.468;2023-04-19T06:16:01;3.50;;;2.10;;
32639;SDS011;19049;52.524;11.468;2023-04-19T06:18:27;2.87;;;1.97;;
32639;SDS011;19049;52.524;11.468;2023-04-19T06:20:53;1.93;;;1.53;;
32639;SDS011;19049;52.524;11.468;2023-04-19T06:23:18;2.03;;;1.57;;
32639;SDS011;19049;52.524;11.468;2023-04-19T06:25:44;2.13;;;1.70;;
32639;SDS011;19049;52.524;11.468;2023-04-19T06:28:12;3.50;;;1.77;;
32639;SDS011;19049;52.524;11.468;2023-04-19T06:30:38;2.23;;;1.70;;
32639;SDS011;19049;52.524;11.468;2023-04-19T06:33:04;3.03;;;1.80;;
32639;SDS011;19049;52.524;11.468;2023-04-19T06:35:30;2.10;;;1.83;;
32639;SDS011;19049;52.524;11.468;2023-04-19T06:37:57;2.37;;;1.53;;
32639;SDS011;19049;52.524;11.468;2023-04-19T06:40:23;2.40;;;1.90;;
32639;SDS011;19049;52.524;11.468;2023-04-19T06:42:49;2.60;;;1.50;;
32639;SDS011;19049;52.524;11.468;2023-04-19T06:45:15;1.83;;;1.60;;
32639;SDS011;19049;52.524;11.468;2023-04-19T06:47:41;3.03;;;1.70;;
32639;SDS011;19049;52.524;11.468;2023-04-19T06:50:07;2.17;;;1.40;;
32639;SDS011;19049;52.524;11.468;2023-04-19T06:52:34;2.10;;;1.63;;
32639;SDS011;19049;52.524;11.468;2023-04-19T06:55:00;4.30;;;1.37;;
32639;SDS011;19049;52.524;11.468;2023-04-19T06:57:26;2.27;;;1.70;;
32639;SDS011;19049;52.524;11.468;2023-04-19T06:59:55;3.50;;;1.83;;
32639;SDS011;19049;52.524;11.468;2023-04-19T07:02:22;3.60;;;1.63;;
32639;SDS011;19049;52.524;11.468;2023-04-19T07:04:47;2.33;;;1.70;;
32639;SDS011;19049;52.524;11.468;2023-04-19T07:07:13;2.07;;;1.50;;
32639;SDS011;19049;52.524;11.468;2023-04-19T07:09:38;2.77;;;1.40;;
32639;SDS011;19049;52.524;11.468;2023-04-19T07:12:05;2.47;;;1.80;;
32639;SDS011;19049;52.524;11.468;2023-04-19T07:14:31;3.03;;;1.80;;
32639;SDS011;19049;52.524;11.468;2023-04-19T07:16:56;2.87;;;1.77;;
32639;SDS011;19049;52.524;11.468;2023-04-19T07:19:22;2.77;;;1.80;;
32639;SDS011;19049;52.524;11.468;2023-04-19T07:21:48;4.80;;;1.77;;
32639;SDS011;19049;52.524;11.468;2023-04-19T07:24:15;3.20;;;1.67;;
32639;SDS011;19049;52.524;11.468;2023-04-19T07:26:40;2.43;;;1.73;;
32639;SDS011;19049;52.524;11.468;2023-04-19T07:29:06;2.30;;;1.77;;
32639;SDS011;19049;52.524;11.468;2023-04-19T07:31:32;3.10;;;1.53;;
32639;SDS011;19049;52.524;11.468;2023-04-19T07:33:58;3.63;;;1.77;;
32639;SDS011;19049;52.524;11.468;2023-04-19T07:36:23;1.93;;;1.30;;
32639;SDS011;19049;52.524;11.468;2023-04-19T07:38:49;1.90;;;1.40;;
32639;SDS011;19049;52.524;11.468;2023-04-19T07:41:14;2.00;;;1.50;;
32639;SDS011;19049;52.524;11.468;2023-04-19T07:43:40;2.20;;;1.50;;
32639;SDS011;19049;52.524;11.468;2023-04-19T07:46:10;2.47;;;1.40;;
32639;SDS011;19049;52.524;11.468;2023-04-19T07:48:37;2.17;;;1.67;;
32639;SDS011;19049;52.524;11.468;2023-04-19T07:53:35;2.27;;;1.60;;
32639;SDS011;19049;52.524;11.468;2023-04-19T07:56:01;2.67;;;1.70;;
32639;SDS011;19049;52.524;11.468;2023-04-19T07:58:27;4.13;;;1.80;;
32639;SDS011;19049;52.524;11.468;2023-04-19T08:00:53;2.40;;;1.73;;
32639;SDS011;19049;52.524;11.468;2023-04-19T08:03:18;1.77;;;1.60;;
32639;SDS011;19049;52.524;11.468;2023-04-19T08:05:44;1.90;;;1.50;;
32639;SDS011;19049;52.524;11.468;2023-04-19T08:08:10;1.93;;;1.70;;
32639;SDS011;19049;52.524;11.468;2023-04-19T08:10:36;2.80;;;1.80;;
32639;SDS011;19049;52.524;11.468;2023-04-19T08:13:02;1.97;;;1.40;;
32639;SDS011;19049;52.524;11.468;2023-04-19T08:15:27;2.80;;;1.80;;
32639;SDS011;19049;52.524;11.468;2023-04-19T08:17:53;2.27;;;1.73;;
32639;SDS011;19049;52.524;11.468;2023-04-19T08:20:19;2.43;;;1.50;;
32639;SDS011;19049;52.524;11.468;2023-04-19T08:22:45;2.07;;;1.67;;
32639;SDS011;19049;52.524;11.468;2023-04-19T08:25:11;2.73;;;1.70;;
32639;SDS011;19049;52.524;11.468;2023-04-19T08:27:37;3.70;;;1.90;;
32639;SDS011;19049;52.524;11.468;2023-04-19T08:30:03;1.70;;;1.50;;
32639;SDS011;19049;52.524;11.468;2023-04-19T08:32:29;1.53;;;1.43;;
32639;SDS011;19049;52.524;11.468;2023-04-19T08:34:54;1.70;;;1.33;;
32639;SDS011;19049;52.524;11.468;2023-04-19T08:37:21;5.10;;;1.70;;
32639;SDS011;19049;52.524;11.468;2023-04-19T08:39:47;4.13;;;1.80;;
32639;SDS011;19049;52.524;11.468;2023-04-19T08:42:13;2.83;;;1.50;;
32639;SDS011;19049;52.524;11.468;2023-04-19T08:44:38;2.07;;;1.40;;
32639;SDS011;19049;52.524;11.468;2023-04-19T08:47:05;2.40;;;1.53;;
32639;SDS011;19049;52.524;11.468;2023-04-19T08:49:34;3.40;;;1.40;;
32639;SDS011;19049;52.524;11.468;2023-04-19T08:52:01;1.50;;;1.40;;
32639;SDS011;19049;52.524;11.468;2023-04-19T08:54:30;2.53;;;2.33;;
32639;SDS011;19049;52.524;11.468;2023-04-19T08:56:59;1.50;;;1.40;;
32639;SDS011;19049;52.524;11.468;2023-04-19T08:59:26;1.90;;;1.70;;
32639;SDS011;19049;52.524;11.468;2023-04-19T09:01:53;2.70;;;1.63;;
32639;SDS011;19049;52.524;11.468;2023-04-19T09:04:20;2.00;;;1.80;;
32639;SDS011;19049;52.524;11.468;2023-04-19T09:06:46;2.47;;;1.53;;
32639;SDS011;19049;52.524;11.468;2023-04-19T09:09:19;1.70;;;1.60;;
32639;SDS011;19049;52.524;11.468;2023-04-19T09:11:47;2.77;;;1.83;;
32639;SDS011;19049;52.524;11.468;2023-04-19T09:14:14;2.33;;;1.60;;
32639;SDS011;19049;52.524;11.468;2023-04-19T09:16:40;5.53;;;1.90;;
32639;SDS011;19049;52.524;11.468;2023-04-19T09:19:07;2.47;;;1.53;;
32639;SDS011;19049;52.524;11.468;2023-04-19T09:21:33;5.67;;;1.70;;
32639;SDS011;19049;52.524;11.468;2023-04-19T09:24:00;3.57;;;1.77;;
32639;SDS011;19049;52.524;11.468;2023-04-19T09:26:26;2.40;;;1.50;;
32639;SDS011;19049;52.524;11.468;2023-04-19T09:29:00;2.03;;;1.50;;
32639;SDS011;19049;52.524;11.468;2023-04-19T09:31:27;3.40;;;1.33;;
32639;SDS011;19049;52.524;11.468;2023-04-19T09:33:54;1.83;;;1.50;;
32639;SDS011;19049;52.524;11.468;2023-04-19T09:36:27;2.93;;;1.57;;
32639;SDS011;19049;52.524;11.468;2023-04-19T09:38:57;1.90;;;1.67;;
32639;SDS011;19049;52.524;11.468;2023-04-19T09:41:24;2.43;;;1.63;;
32639;SDS011;19049;52.524;11.468;2023-04-19T09:43:50;2.80;;;1.53;;
32639;SDS011;19049;52.524;11.468;2023-04-19T09:46:29;3.40;;;1.87;;
32639;SDS011;19049;52.524;11.468;2023-04-19T09:49:10;7.67;;;1.70;;
32639;SDS011;19049;52.524;11.468;2023-04-19T09:51:48;2.97;;;1.57;;
32639;SDS011;19049;52.524;11.468;2023-04-19T09:54:18;1.90;;;1.40;;
32639;SDS011;19049;52.524;11.468;2023-04-19T09:56:48;2.63;;;1.70;;
32639;SDS011;19049;52.524;11.468;2023-04-19T09:59:16;2.70;;;1.83;;
32639;SDS011;19049;52.524;11.468;2023-04-19T10:01:46;5.30;;;1.67;;
32639;SDS011;19049;52.524;11.468;2023-04-19T10:04:16;1.60;;;1.43;;
32639;SDS011;19049;52.524;11.468;2023-04-19T10:06:46;1.83;;;1.30;;
32639;SDS011;19049;52.524;11.468;2023-04-19T10:09:17;2.63;;;1.60;;
32639;SDS011;19049;52.524;11.468;2023-04-19T10:11:48;2.90;;;2.00;;
32639;SDS011;19049;52.524;11.468;2023-04-19T10:14:15;3.77;;;1.70;;
32639;SDS011;19049;52.524;11.468;2023-04-19T10:16:43;3.10;;;1.67;;
32639;SDS011;19049;52.524;11.468;2023-04-19T10:19:11;2.23;;;1.60;;
32639;SDS011;19049;52.524;11.468;2023-04-19T10:21:42;2.37;;;1.80;;
32639;SDS011;19049;52.524;11.468;2023-04-19T10:24:11;1.43;;;1.30;;
32639;SDS011;19049;52.524;11.468;2023-04-19T10:32:39;3.10;;;2.00;;
32639;SDS011;19049;52.524;11.468;2023-04-19T10:35:07;1.53;;;1.40;;
32639;SDS011;19049;52.524;11.468;2023-04-19T10:37:34;2.87;;;2.07;;
32639;SDS011;19049;52.524;11.468;2023-04-19T10:40:04;2.63;;;2.13;;
32639;SDS011;19049;52.524;11.468;2023-04-19T10:45:51;3.33;;;1.97;;
32639;SDS011;19049;52.524;11.468;2023-04-19T10:51:04;1.90;;;1.67;;
32639;SDS011;19049;52.524;11.468;2023-04-19T10:53:55;3.43;;;1.50;;
32639;SDS011;19049;52.524;11.468;2023-04-19T10:56:56;2.27;;;1.60;;
32639;SDS011;19049;52.524;11.468;2023-04-19T10:59:16;1.80;;;1.60;;
32639;SDS011;19049;52.524;11.468;2023-04-19T11:01:47;5.37;;;1.70;;
32639;SDS011;19049;52.524;11.468;2023-04-19T11:04:18;2.73;;;1.43;;
32639;SDS011;19049;52.524;11.468;2023-04-19T11:11:51;3.60;;;1.80;;
32639;SDS011;19049;52.524;11.468;2023-04-19T11:14:19;2.00;;;1.80;;
32639;SDS011;19049;52.524;11.468;2023-04-19T11:16:45;3.87;;;1.80;;
32639;SDS011;19049;52.524;11.468;2023-04-19T11:19:14;3.50;;;1.60;;
32639;SDS011;19049;52.524;11.468;2023-04-19T11:21:47;3.53;;;2.00;;
32639;SDS011;19049;52.524;11.468;2023-04-19T11:24:13;2.63;;;1.77;;
32639;SDS011;19049;52.524;11.468;2023-04-19T11:26:46;3.20;;;1.70;;
32639;SDS011;19049;52.524;11.468;2023-04-19T11:29:15;2.57;;;1.87;;
32639;SDS011;19049;52.524;11.468;2023-04-19T11:31:44;2.80;;;1.90;;
32639;SDS011;19049;52.524;11.468;2023-04-19T11:34:11;4.73;;;2.57;;
32639;SDS011;19049;52.524;11.468;2023-04-19T11:36:46;2.07;;;1.87;;
32639;SDS011;19049;52.524;11.468;2023-04-19T11:39:12;2.23;;;2.00;;
32639;SDS011;19049;52.524;11.468;2023-04-19T11:41:38;3.43;;;1.90;;
32639;SDS011;19049;52.524;11.468;2023-04-19T11:44:11;3.77;;;2.10;;
32639;SDS011;19049;52.524;11.468;2023-04-19T11:46:41;2.47;;;1.70;;
32639;SDS011;19049;52.524;11.468;2023-04-19T11:49:07;2.07;;;1.60;;
32639;SDS011;19049;52.524;11.468;2023-04-19T11:51:33;2.63;;;1.77;;
32639;SDS011;19049;52.524;11.468;2023-04-19T11:53:59;2.40;;;1.87;;
32639;SDS011;19049;52.524;11.468;2023-04-19T11:56:25;3.20;;;1.90;;
32639;SDS011;19049;52.524;11.468;2023-04-19T11:58:55;2.67;;;2.10;;
32639;SDS011;19049;52.524;11.468;2023-04-19T12:01:21;2.17;;;1.90;;
32639;SDS011;19049;52.524;11.468;2023-04-19T12:03:53;2.37;;;1.93;;
32639;SDS011;19049;52.524;11.468;2023-04-19T12:06:24;2.37;;;1.80;;
32639;SDS011;19049;52.524;11.468;2023-04-19T12:08:51;4.50;;;2.17;;
32639;SDS011;19049;52.524;11.468;2023-04-19T12:11:18;3.70;;;2.07;;
32639;SDS011;19049;52.524;11.468;2023-04-19T12:14:06;2.87;;;2.03;;
32639;SDS011;19049;52.524;11.468;2023-04-19T12:16:32;2.50;;;2.03;;
32639;SDS011;19049;52.524;11.468;2023-04-19T12:18:58;5.83;;;2.00;;
32639;SDS011;19049;52.524;11.468;2023-04-19T12:21:39;2.40;;;2.03;;
32639;SDS011;19049;52.524;11.468;2023-04-19T12:24:05;2.60;;;1.97;;
32639;SDS011;19049;52.524;11.468;2023-04-19T12:26:31;3.00;;;2.50;;
32639;SDS011;19049;52.524;11.468;2023-04-19T12:28:58;3.23;;;2.10;;
32639;SDS011;19049;52.524;11.468;2023-04-19T12:31:25;2.23;;;1.80;;
32639;SDS011;19049;52.524;11.468;2023-04-19T12:33:51;2.73;;;2.00;;
32639;SDS011;19049;52.524;11.468;2023-04-19T12:36:17;3.20;;;1.90;;
32639;SDS011;19049;52.524;11.468;2023-04-19T12:38:43;2.73;;;1.60;;
32639;SDS011;19049;52.524;11.468;2023-04-19T12:41:09;2.20;;;1.60;;
32639;SDS011;19049;52.524;11.468;2023-04-19T12:43:35;4.57;;;2.10;;
32639;SDS011;19049;52.524;11.468;2023-04-19T12:46:01;3.77;;;2.10;;
32639;SDS011;19049;52.524;11.468;2023-04-19T12:48:27;3.30;;;2.03;;
32639;SDS011;19049;52.524;11.468;2023-04-19T12:50:53;3.47;;;2.20;;
32639;SDS011;19049;52.524;11.468;2023-04-19T12:53:19;2.80;;;2.23;;
32639;SDS011;19049;52.524;11.468;2023-04-19T12:55:46;3.97;;;1.70;;
32639;SDS011;19049;52.524;11.468;2023-04-19T12:58:14;2.73;;;1.90;;
32639;SDS011;19049;52.524;11.468;2023-04-19T13:00:43;3.80;;;2.33;;
32639;SDS011;19049;52.524;11.468;2023-04-19T13:03:09;3.20;;;2.40;;
32639;SDS011;19049;52.524;11.468;2023-04-19T13:05:36;3.73;;;2.27;;
32639;SDS011;19049;52.524;11.468;2023-04-19T13:08:02;3.67;;;2.10;;
32639;SDS011;19049;52.524;11.468;2023-04-19T13:10:28;2.83;;;2.03;;
32639;SDS011;19049;52.524;11.468;2023-04-19T13:12:54;1.70;;;1.60;;
32639;SDS011;19049;52.524;11.468;2023-04-19T13:15:20;3.73;;;1.90;;
32639;SDS011;19049;52.524;11.468;2023-04-19T13:17:46;4.73;;;2.07;;
32639;SDS011;19049;52.524;11.468;2023-04-19T13:20:11;3.33;;;2.60;;
32639;SDS011;19049;52.524;11.468;2023-04-19T13:22:38;4.03;;;2.40;;
32639;SDS011;19049;52.524;11.468;2023-04-19T13:25:03;3.97;;;2.53;;
32639;SDS011;19049;52.524;11.468;2023-04-19T13:27:30;5.13;;;2.37;;
32639;SDS011;19049;52.524;11.468;2023-04-19T13:29:55;3.63;;;2.37;;
32639;SDS011;19049;52.524;11.468;2023-04-19T13:32:21;3.30;;;2.23;;
32639;SDS011;19049;52.524;11.468;2023-04-19T13:34:47;6.37;;;2.93;;
32639;SDS011;19049;52.524;11.468;2023-04-19T13:37:13;3.80;;;2.50;;
32639;SDS011;19049;52.524;11.468;2023-04-19T13:39:38;3.57;;;2.30;;
32639;SDS011;19049;52.524;11.468;2023-04-19T13:42:04;4.27;;;2.60;;
32639;SDS011;19049;52.524;11.468;2023-04-19T13:44:30;3.90;;;2.13;;
32639;SDS011;19049;52.524;11.468;2023-04-19T13:46:56;2.50;;;2.10;;
32639;SDS011;19049;52.524;11.468;2023-04-19T13:49:22;3.70;;;2.67;;
32639;SDS011;19049;52.524;11.468;2023-04-19T13:51:48;4.43;;;2.70;;
32639;SDS011;19049;52.524;11.468;2023-04-19T13:54:13;3.67;;;2.53;;
32639;SDS011;19049;52.524;11.468;2023-04-19T13:56:41;2.60;;;2.40;;
32639;SDS011;19049;52.524;11.468;2023-04-19T13:59:07;4.03;;;2.50;;
32639;SDS011;19049;52.524;11.468;2023-04-19T14:01:32;3.83;;;2.80;;
32639;SDS011;19049;52.524;11.468;2023-04-19T14:03:58;4.27;;;2.87;;
32639;SDS011;19049;52.524;11.468;2023-04-19T14:06:24;6.20;;;3.03;;
32639;SDS011;19049;52.524;11.468;2023-04-19T14:08:50;5.93;;;2.70;;
32639;SDS011;19049;52.524;11.468;2023-04-19T14:11:15;5.67;;;2.83;;
32639;SDS011;19049;52.524;11.468;2023-04-19T14:13:41;5.50;;;2.93;;
32639;SDS011;19049;52.524;11.468;2023-04-19T14:16:08;3.17;;;2.20;;
32639;SDS011;19049;52.524;11.468;2023-04-19T14:18:33;8.37;;;3.37;;
32639;SDS011;19049;52.524;11.468;2023-04-19T14:20:59;3.03;;;2.00;;
32639;SDS011;19049;52.524;11.468;2023-04-19T14:23:25;3.63;;;2.37;;
32639;SDS011;19049;52.524;11.468;2023-04-19T14:25:51;3.40;;;2.30;;
32639;SDS011;19049;52.524;11.468;2023-04-19T14:28:17;5.33;;;2.40;;
32639;SDS011;19049;52.524;11.468;2023-04-19T14:30:43;2.47;;;2.13;;
32639;SDS011;19049;52.524;11.468;2023-04-19T14:33:08;2.67;;;2.30;;
32639;SDS011;19049;52.524;11.468;2023-04-19T14:35:34;3.73;;;2.60;;
32639;SDS011;19049;52.524;11.468;2023-04-19T14:38:00;3.60;;;2.27;;
32639;SDS011;19049;52.524;11.468;2023-04-19T14:40:25;5.13;;;2.20;;
32639;SDS011;19049;52.524;11.468;2023-04-19T14:42:51;3.83;;;2.23;;
32639;SDS011;19049;52.524;11.468;2023-04-19T14:45:17;4.23;;;2.53;;
32639;SDS011;19049;52.524;11.468;2023-04-19T14:47:43;3.53;;;2.53;;
32639;SDS011;19049;52.524;11.468;2023-04-19T14:50:08;3.13;;;2.30;;